createdAt,value
2024-03-07T00:00:16.266Z,11.61
2024-03-07T00:02:49.139Z,11.59
2024-03-07T00:05:17.214Z,11.58
2024-03-07T00:07:44.038Z,11.58
2024-03-07T00:10:11.795Z,11.62
2024-03-07T00:12:41.695Z,11.59
2024-03-07T00:15:10.317Z,11.65
2024-03-07T00:17:37.064Z,11.65
2024-03-07T00:20:05.597Z,11.63
2024-03-07T00:22:32.631Z,11.68
2024-03-07T00:24:59.153Z,11.69
2024-03-07T00:27:27.287Z,11.65
2024-03-07T00:29:58.113Z,11.68
2024-03-07T00:32:25.050Z,11.71
2024-03-07T00:34:51.756Z,11.68
2024-03-07T00:37:18.698Z,11.69
2024-03-07T00:39:45.213Z,11.66
2024-03-07T00:42:11.704Z,11.68
2024-03-07T00:44:38.279Z,11.69
2024-03-07T00:47:05.799Z,11.66
2024-03-07T00:49:32.552Z,11.72
2024-03-07T00:52:00.318Z,11.72
2024-03-07T00:54:27.053Z,11.65
2024-03-07T00:56:54.248Z,11.66
2024-03-07T00:59:21.849Z,11.68
2024-03-07T01:01:48.423Z,11.66
2024-03-07T01:04:14.929Z,11.62
2024-03-07T01:06:42.364Z,11.57
2024-03-07T01:09:15.190Z,11.59
2024-03-07T01:11:49.276Z,11.60
2024-03-07T01:14:16.104Z,11.59
2024-03-07T01:16:42.750Z,11.57
2024-03-07T01:19:09.816Z,11.57
2024-03-07T01:21:38.893Z,11.57
2024-03-07T01:24:06.553Z,11.54
2024-03-07T01:26:34.923Z,11.51
2024-03-07T01:29:01.706Z,11.45
2024-03-07T01:31:28.210Z,11.42
2024-03-07T01:33:55.908Z,11.44
2024-03-07T01:36:22.925Z,11.39
2024-03-07T01:38:49.661Z,11.37
2024-03-07T01:41:16.471Z,11.33
2024-03-07T01:43:43.962Z,11.33
2024-03-07T01:46:11.533Z,11.30
2024-03-07T01:48:39.577Z,11.30
2024-03-07T01:51:06.759Z,11.22
2024-03-07T01:53:34.177Z,11.23
2024-03-07T01:56:01.459Z,11.18
2024-03-07T01:58:30.259Z,11.21
2024-03-07T02:00:57.017Z,11.20
2024-03-07T02:03:23.600Z,11.18
2024-03-07T02:05:50.480Z,11.17
2024-03-07T02:08:17.135Z,11.16
2024-03-07T02:10:43.791Z,11.14
2024-03-07T02:13:10.326Z,11.12
2024-03-07T02:15:36.875Z,10.97
2024-03-07T02:18:03.750Z,10.93
2024-03-07T02:20:30.494Z,10.95
2024-03-07T02:22:57.236Z,10.87
2024-03-07T02:25:23.728Z,10.86
2024-03-07T02:27:50.333Z,10.89
2024-03-07T02:30:19.852Z,10.83
2024-03-07T02:32:53.143Z,10.79
2024-03-07T02:35:20.264Z,10.77
2024-03-07T02:37:49.530Z,10.74
2024-03-07T02:40:17.270Z,10.66
2024-03-07T02:42:44.338Z,10.69
2024-03-07T02:45:14.060Z,10.68
2024-03-07T02:47:40.633Z,10.61
2024-03-07T02:50:07.582Z,10.60
2024-03-07T02:52:34.166Z,10.63
2024-03-07T02:55:00.696Z,10.56
2024-03-07T02:57:27.191Z,10.61
2024-03-07T02:59:53.754Z,10.63
2024-03-07T03:02:20.343Z,10.64
2024-03-07T03:04:46.883Z,10.59
2024-03-07T03:07:13.372Z,10.57
2024-03-07T03:09:44.247Z,10.60
2024-03-07T03:12:11.770Z,10.56
2024-03-07T03:14:38.828Z,10.51
2024-03-07T03:17:05.651Z,10.51
2024-03-07T03:19:32.179Z,10.45
2024-03-07T03:21:58.923Z,10.34
2024-03-07T03:24:26.738Z,10.35
2024-03-07T03:26:53.428Z,10.40
2024-03-07T03:29:20.060Z,10.40
2024-03-07T03:31:46.545Z,10.40
2024-03-07T03:34:13.035Z,10.36
2024-03-07T03:36:39.917Z,10.40
2024-03-07T03:39:08.116Z,10.34
2024-03-07T03:41:34.738Z,10.31
2024-03-07T03:44:01.290Z,10.33
2024-03-07T03:46:27.790Z,10.28
2024-03-07T03:48:54.291Z,10.25
2024-03-07T03:51:23.026Z,10.24
2024-03-07T03:53:50.288Z,10.18
2024-03-07T03:56:17.117Z,10.19
2024-03-07T03:58:44.449Z,10.17
2024-03-07T04:01:14.463Z,10.13
2024-03-07T04:03:41.691Z,10.09
2024-03-07T04:06:08.300Z,10.12
2024-03-07T04:08:37.944Z,10.10
2024-03-07T04:11:11.093Z,10.06
2024-03-07T04:13:37.882Z,10.01
2024-03-07T04:16:05.546Z,10.03
2024-03-07T04:18:33.432Z,9.99
2024-03-07T04:21:00.343Z,9.99
2024-03-07T04:23:27.184Z,9.98
2024-03-07T04:25:53.810Z,9.96
2024-03-07T04:28:20.570Z,9.91
2024-03-07T04:30:47.199Z,9.92
2024-03-07T04:33:14.062Z,9.88
2024-03-07T04:35:40.749Z,9.92
2024-03-07T04:38:12.742Z,9.89
2024-03-07T04:40:40.228Z,9.85
2024-03-07T04:43:06.938Z,9.85
2024-03-07T04:45:33.519Z,9.87
2024-03-07T04:48:00.181Z,9.85
2024-03-07T04:50:27.743Z,9.86
2024-03-07T04:52:54.605Z,9.87
2024-03-07T04:55:21.240Z,9.80
2024-03-07T04:57:48.123Z,9.80
2024-03-07T05:00:17.284Z,9.82
2024-03-07T05:02:47.564Z,9.76
2024-03-07T05:05:14.940Z,9.72
2024-03-07T05:07:41.730Z,9.74
2024-03-07T05:10:09.296Z,9.77
2024-03-07T05:12:36.271Z,9.75
2024-03-07T05:15:05.217Z,9.68
2024-03-07T05:17:35.434Z,9.71
2024-03-07T05:20:02.540Z,9.64
2024-03-07T05:22:31.642Z,9.61
2024-03-07T05:24:59.840Z,9.55
2024-03-07T05:27:26.700Z,9.52
2024-03-07T05:29:53.366Z,9.48
2024-03-07T05:32:27.759Z,9.56
2024-03-07T05:34:55.002Z,9.58
2024-03-07T05:37:25.078Z,9.58
2024-03-07T05:39:53.281Z,9.57
2024-03-07T05:42:20.159Z,9.52
2024-03-07T05:44:46.761Z,9.49
2024-03-07T05:47:17.291Z,9.53
2024-03-07T05:49:44.693Z,9.54
2024-03-07T05:52:11.286Z,9.54
2024-03-07T05:54:37.875Z,9.57
2024-03-07T05:57:07.215Z,9.58
2024-03-07T05:59:34.503Z,9.62
2024-03-07T06:02:01.188Z,9.68
2024-03-07T06:04:27.695Z,9.66
2024-03-07T06:06:55.109Z,9.73
2024-03-07T06:09:24.797Z,9.74
2024-03-07T06:11:51.790Z,9.75
2024-03-07T06:14:19.213Z,9.81
2024-03-07T06:16:46.116Z,9.78
2024-03-07T06:19:12.820Z,9.83
2024-03-07T06:21:42.064Z,9.82
2024-03-07T06:24:11.417Z,9.88
2024-03-07T06:26:42.336Z,9.92
2024-03-07T06:29:09.535Z,9.94
2024-03-07T06:31:36.040Z,9.91
2024-03-07T06:34:02.828Z,9.97
2024-03-07T06:36:29.440Z,10.03
2024-03-07T06:38:55.998Z,10.05
2024-03-07T06:41:22.677Z,10.11
2024-03-07T06:43:51.084Z,10.12
2024-03-07T06:46:17.805Z,10.08
2024-03-07T06:48:45.492Z,10.09
2024-03-07T06:51:12.229Z,10.14
2024-03-07T06:53:39.850Z,10.15
2024-03-07T06:56:07.566Z,10.15
2024-03-07T06:58:34.511Z,10.21
2024-03-07T07:01:02.565Z,10.27
2024-03-07T07:03:33.380Z,10.33
2024-03-07T07:06:00.296Z,10.34
2024-03-07T07:08:27.159Z,10.44
2024-03-07T07:10:55.753Z,10.47
2024-03-07T07:13:22.848Z,10.55
2024-03-07T07:15:52.320Z,10.50
2024-03-07T07:18:18.895Z,10.59
2024-03-07T07:20:45.787Z,10.64
2024-03-07T07:23:12.317Z,10.69
2024-03-07T07:25:38.815Z,10.69
2024-03-07T07:28:06.150Z,10.80
2024-03-07T07:30:33.135Z,10.81
2024-03-07T07:32:59.784Z,10.86
2024-03-07T07:35:26.498Z,10.83
2024-03-07T07:37:54.972Z,10.97
2024-03-07T07:40:23.767Z,10.93
2024-03-07T07:42:55.030Z,11.03
2024-03-07T07:45:23.058Z,11.04
2024-03-07T07:47:52.766Z,11.06
2024-03-07T07:50:24.796Z,11.10
2024-03-07T07:52:54.759Z,11.08
2024-03-07T07:55:23.138Z,11.08
2024-03-07T07:57:55.282Z,11.07
2024-03-07T08:00:23.808Z,11.13
2024-03-07T08:02:58.996Z,11.08
2024-03-07T08:05:28.514Z,11.09
2024-03-07T08:08:00.650Z,11.13
2024-03-07T08:10:31.545Z,11.06
2024-03-07T08:12:59.546Z,11.08
2024-03-07T08:15:29.185Z,11.05
2024-03-07T08:17:57.497Z,11.13
2024-03-07T08:20:27.186Z,11.11
2024-03-07T08:22:56.373Z,11.17
2024-03-07T08:25:28.757Z,11.20
2024-03-07T08:27:57.598Z,11.19
2024-03-07T08:30:25.476Z,11.22
2024-03-07T08:32:56.814Z,11.15
2024-03-07T08:35:24.464Z,11.17
2024-03-07T08:37:56.410Z,11.22
2024-03-07T08:40:27.387Z,11.26
2024-03-07T08:42:55.744Z,11.18
2024-03-07T08:45:22.222Z,11.18
2024-03-07T08:47:51.526Z,11.22
2024-03-07T08:50:21.848Z,11.23
2024-03-07T08:52:50.224Z,11.23
2024-03-07T08:55:22.132Z,11.25
2024-03-07T08:57:50.271Z,11.28
2024-03-07T09:00:28.500Z,11.14
2024-03-07T09:03:01.887Z,11.21
2024-03-07T09:05:34.713Z,11.22
2024-03-07T09:08:01.726Z,11.24
2024-03-07T09:10:31.161Z,11.28
2024-03-07T09:12:58.601Z,11.24
2024-03-07T09:15:25.411Z,11.28
2024-03-07T09:17:54.374Z,11.29
2024-03-07T09:20:21.837Z,11.35
2024-03-07T09:22:52.122Z,11.36
2024-03-07T09:25:20.661Z,11.40
2024-03-07T09:27:47.652Z,11.37
2024-03-07T09:30:16.371Z,11.39
2024-03-07T09:32:43.598Z,11.41
2024-03-07T09:35:14.718Z,11.48
2024-03-07T09:37:42.749Z,11.48
2024-03-07T09:40:13.594Z,11.49
2024-03-07T09:42:53.476Z,11.45
2024-03-07T09:45:24.338Z,11.47
2024-03-07T09:47:53.737Z,11.49
2024-03-07T09:50:25.934Z,11.51
2024-03-07T09:52:56.422Z,11.59
2024-03-07T09:55:26.753Z,11.66
2024-03-07T09:57:54.350Z,11.91
2024-03-07T10:00:25.874Z,12.31
2024-03-07T10:03:02.966Z,12.54
2024-03-07T10:05:31.012Z,12.60
2024-03-07T10:07:57.772Z,12.60
2024-03-07T10:10:24.918Z,12.56
2024-03-07T10:12:54.505Z,12.42
2024-03-07T10:15:21.145Z,12.60
2024-03-07T10:17:48.137Z,12.54
2024-03-07T10:20:21.655Z,12.59
2024-03-07T10:22:50.013Z,12.54
2024-03-07T10:25:19.306Z,12.55
2024-03-07T10:27:50.165Z,12.48
2024-03-07T10:30:22.156Z,12.42
2024-03-07T10:32:52.811Z,12.37
2024-03-07T10:35:26.367Z,12.38
2024-03-07T10:37:56.995Z,12.27
2024-03-07T10:40:24.357Z,12.25
2024-03-07T10:42:55.483Z,12.20
2024-03-07T10:45:22.886Z,12.23
2024-03-07T10:47:57.490Z,12.26
2024-03-07T10:50:30.314Z,12.32
2024-03-07T10:53:03.712Z,12.42
2024-03-07T10:55:31.172Z,12.43
2024-03-07T10:58:07.598Z,12.44
2024-03-07T11:00:38.513Z,12.48
2024-03-07T11:03:08.469Z,12.48
2024-03-07T11:05:35.638Z,12.58
2024-03-07T11:08:08.610Z,12.53
2024-03-07T11:10:37.055Z,12.52
2024-03-07T11:13:05.553Z,12.47
2024-03-07T11:15:34.333Z,12.43
2024-03-07T11:18:01.573Z,12.37
2024-03-07T11:20:36.436Z,12.25
2024-03-07T11:23:39.807Z,12.28
2024-03-07T11:26:11.704Z,12.22
2024-03-07T11:28:43.653Z,12.21
2024-03-07T11:31:25.474Z,12.18
2024-03-07T11:34:20.776Z,12.16
2024-03-07T11:36:50.807Z,12.12
2024-03-07T11:39:44.197Z,12.13
2024-03-07T11:42:20.945Z,12.09
2024-03-07T11:44:48.387Z,12.09
2024-03-07T11:47:14.979Z,12.05
2024-03-07T11:49:41.634Z,12.10
2024-03-07T11:52:14.416Z,12.09
2024-03-07T11:54:42.356Z,12.08
2024-03-07T11:57:14.186Z,12.09
2024-03-07T11:59:47.003Z,12.05
2024-03-07T12:02:16.269Z,12.02
2024-03-07T12:04:43.303Z,12.03
2024-03-07T12:07:11.608Z,12.10
2024-03-07T12:09:39.336Z,12.09
2024-03-07T12:12:07.287Z,12.10
2024-03-07T12:14:35.281Z,12.12
2024-03-07T12:17:05.369Z,12.12
2024-03-07T12:19:33.825Z,12.09
2024-03-07T12:22:04.167Z,12.11
2024-03-07T12:24:31.165Z,12.13
2024-03-07T12:27:11.378Z,12.10
2024-03-07T12:29:39.661Z,12.09
2024-03-07T12:32:11.789Z,12.11
2024-03-07T12:34:41.899Z,12.07
2024-03-07T12:37:10.502Z,12.12
2024-03-07T12:39:39.863Z,12.07
2024-03-07T12:42:07.066Z,12.15
2024-03-07T12:44:43.833Z,12.09
2024-03-07T12:47:11.864Z,11.99
2024-03-07T12:49:38.590Z,12.11
2024-03-07T12:52:06.911Z,12.12
2024-03-07T12:54:33.428Z,12.07
2024-03-07T12:56:59.956Z,12.07
2024-03-07T12:59:26.821Z,12.14
2024-03-07T13:01:55.360Z,12.11
2024-03-07T13:04:21.893Z,12.15
2024-03-07T13:06:48.524Z,12.16
2024-03-07T13:09:15.048Z,12.10
2024-03-07T13:11:48.822Z,12.11
2024-03-07T13:14:15.589Z,12.15
2024-03-07T13:16:44.220Z,12.15
2024-03-07T13:19:13.082Z,12.11
2024-03-07T13:21:40.436Z,12.15
2024-03-07T13:24:07.687Z,12.07
2024-03-07T13:26:34.247Z,12.07
2024-03-07T13:29:03.616Z,12.01
2024-03-07T13:31:31.071Z,12.04
2024-03-07T13:33:57.620Z,11.99
2024-03-07T13:36:26.382Z,11.99
2024-03-07T13:38:55.599Z,12.02
2024-03-07T13:41:22.642Z,12.00
2024-03-07T13:43:49.665Z,11.97
2024-03-07T13:46:18.959Z,12.00
2024-03-07T13:48:45.613Z,11.94
2024-03-07T13:51:16.211Z,12.02
2024-03-07T13:53:48.714Z,11.99
2024-03-07T13:56:36.831Z,12.05
2024-03-07T13:59:09.324Z,12.00
2024-03-07T14:01:54.661Z,12.00
2024-03-07T14:04:42.855Z,11.99
2024-03-07T14:07:13.128Z,11.99
2024-03-07T14:09:55.142Z,11.96
2024-03-07T14:12:50.257Z,11.99
2024-03-07T14:15:57.945Z,11.96
2024-03-07T14:19:04.771Z,11.94
2024-03-07T14:22:05.603Z,11.88
2024-03-07T14:25:06.769Z,11.70
2024-03-07T14:27:51.709Z,11.68
2024-03-07T14:30:46.640Z,11.72
2024-03-07T14:33:14.501Z,11.66
2024-03-07T14:36:02.321Z,11.75
2024-03-07T14:38:42.150Z,11.75
2024-03-07T14:41:13.649Z,11.74
2024-03-07T14:43:42.150Z,11.67
2024-03-07T14:46:13.678Z,11.70
2024-03-07T14:48:41.700Z,11.76
2024-03-07T14:51:10.449Z,11.69
2024-03-07T14:53:37.154Z,11.72
2024-03-07T14:56:06.189Z,11.70
2024-03-07T14:58:32.809Z,11.67
2024-03-07T15:00:59.413Z,11.71
2024-03-07T15:03:30.281Z,11.67
2024-03-07T15:05:57.536Z,11.68
2024-03-07T15:08:25.607Z,11.64
2024-03-07T15:10:58.675Z,11.63
2024-03-07T15:13:25.275Z,11.61
2024-03-07T15:15:51.791Z,11.57
2024-03-07T15:18:18.458Z,11.57
2024-03-07T15:20:45.029Z,11.52
2024-03-07T15:23:13.016Z,11.52
2024-03-07T15:25:39.717Z,11.50
2024-03-07T15:28:06.282Z,11.46
2024-03-07T15:30:36.474Z,11.49
2024-03-07T15:33:05.540Z,11.44
2024-03-07T15:35:32.457Z,11.44
2024-03-07T15:37:59.037Z,11.41
2024-03-07T15:40:25.663Z,11.46
2024-03-07T15:42:52.479Z,11.45
2024-03-07T15:45:25.561Z,11.44
2024-03-07T15:48:15.754Z,11.38
2024-03-07T15:50:45.433Z,11.34
2024-03-07T15:53:11.994Z,11.31
2024-03-07T15:55:39.087Z,11.30
2024-03-07T15:58:05.835Z,11.32
2024-03-07T16:00:33.786Z,11.30
2024-03-07T16:03:04.722Z,11.29
2024-03-07T16:05:34.584Z,11.24
2024-03-07T16:08:03.630Z,11.25
2024-03-07T16:10:34.053Z,11.20
2024-03-07T16:13:02.419Z,11.11
2024-03-07T16:15:39.923Z,11.10
2024-03-07T16:18:10.811Z,11.11
2024-03-07T16:20:38.740Z,11.05
2024-03-07T16:23:06.203Z,11.01
2024-03-07T16:25:40.413Z,10.94
2024-03-07T16:28:08.627Z,10.93
2024-03-07T16:30:36.478Z,10.84
2024-03-07T16:33:04.092Z,10.89
2024-03-07T16:35:34.985Z,10.81
2024-03-07T16:38:02.325Z,10.80
2024-03-07T16:40:29.874Z,10.79
2024-03-07T16:43:01.855Z,10.74
2024-03-07T16:45:30.888Z,10.77
2024-03-07T16:48:03.582Z,10.76
2024-03-07T16:50:32.220Z,10.71
2024-03-07T16:53:05.798Z,10.70
2024-03-07T16:55:33.615Z,10.67
2024-03-07T17:00:31.944Z,10.64
2024-03-07T17:03:00.674Z,10.61
2024-03-07T17:05:32.971Z,10.58
2024-03-07T17:08:02.847Z,10.55
2024-03-07T17:10:33.271Z,10.55
2024-03-07T17:13:01.035Z,10.53
2024-03-07T17:15:28.101Z,10.47
2024-03-07T17:17:55.425Z,10.47
2024-03-07T17:20:24.756Z,10.48
2024-03-07T17:22:55.634Z,10.39
2024-03-07T17:25:23.449Z,10.41
2024-03-07T17:27:52.458Z,10.33
2024-03-07T17:30:23.631Z,10.34
2024-03-07T17:32:50.503Z,10.34
2024-03-07T17:35:21.155Z,10.35
2024-03-07T17:37:49.754Z,10.32
2024-03-07T17:40:16.675Z,10.32
2024-03-07T17:42:48.977Z,10.35
2024-03-07T17:45:20.700Z,10.33
2024-03-07T17:47:55.018Z,10.27
2024-03-07T17:50:27.827Z,10.29
2024-03-07T17:53:02.390Z,10.24
2024-03-07T17:55:33.437Z,10.25
2024-03-07T17:58:02.839Z,10.23
2024-03-07T18:00:29.423Z,10.22
2024-03-07T18:02:56.874Z,10.23
2024-03-07T18:05:42.861Z,10.21
2024-03-07T18:08:33.650Z,10.13
2024-03-07T18:11:06.986Z,10.20
2024-03-07T18:13:34.266Z,10.17
2024-03-07T18:16:00.880Z,10.13
2024-03-07T18:18:28.070Z,10.17
2024-03-07T18:20:55.109Z,10.11
2024-03-07T18:23:22.673Z,10.13
2024-03-07T18:25:50.851Z,10.15
2024-03-07T18:28:21.405Z,10.05
2024-03-07T18:30:49.057Z,10.14
2024-03-07T18:33:15.780Z,10.12
2024-03-07T18:35:46.548Z,10.09
2024-03-07T18:38:15.061Z,10.03
2024-03-07T18:40:42.720Z,10.05
2024-03-07T18:43:11.834Z,10.02
2024-03-07T18:45:45.537Z,9.99
2024-03-07T18:48:14.118Z,9.97
2024-03-07T18:50:48.918Z,9.97
2024-03-07T18:53:19.781Z,9.92
2024-03-07T18:55:48.796Z,9.88
2024-03-07T18:58:17.344Z,9.90
2024-03-07T19:00:50.158Z,9.88
2024-03-07T19:03:21.278Z,9.86
2024-03-07T19:05:50.944Z,9.88
2024-03-07T19:08:21.032Z,9.87
2024-03-07T19:10:59.165Z,9.83
2024-03-07T19:13:26.926Z,9.85
2024-03-07T19:15:56.569Z,9.86
2024-03-07T19:18:23.922Z,9.81
2024-03-07T19:20:51.540Z,9.85
2024-03-07T19:23:19.501Z,9.87
2024-03-07T19:25:46.174Z,9.87
2024-03-07T19:28:14.353Z,9.87
2024-03-07T19:30:45.665Z,9.84
2024-03-07T19:33:16.521Z,9.82
2024-03-07T19:35:52.383Z,9.81
2024-03-07T19:38:19.815Z,9.82
2024-03-07T19:40:47.270Z,9.84
2024-03-07T19:43:15.869Z,9.85
2024-03-07T19:45:43.863Z,9.84
2024-03-07T19:48:13.645Z,9.73
2024-03-07T19:50:44.145Z,9.81
2024-03-07T19:53:15.731Z,9.78
2024-03-07T19:55:46.350Z,9.75
2024-03-07T19:58:16.196Z,9.68
2024-03-07T20:00:48.399Z,9.67
2024-03-07T20:03:21.936Z,9.64
2024-03-07T20:05:49.810Z,9.62
2024-03-07T20:08:17.218Z,9.67
2024-03-07T20:10:46.473Z,9.67
2024-03-07T20:13:15.425Z,9.67
2024-03-07T20:15:42.002Z,9.65
2024-03-07T20:18:08.618Z,9.64
2024-03-07T20:20:37.745Z,9.62
2024-03-07T20:23:05.084Z,9.56
2024-03-07T20:25:33.138Z,9.53
2024-03-07T20:27:59.722Z,9.51
2024-03-07T20:30:34.777Z,9.52
2024-03-07T20:33:02.059Z,9.50
2024-03-07T20:35:28.675Z,9.48
2024-03-07T20:37:56.047Z,9.44
2024-03-07T20:40:25.512Z,9.37
2024-03-07T20:42:55.659Z,9.29
2024-03-07T20:45:23.010Z,9.34
2024-03-07T20:47:50.562Z,9.32
2024-03-07T20:50:21.160Z,9.31
2024-03-07T20:52:51.270Z,9.23
2024-03-07T20:55:20.011Z,9.18
2024-03-07T20:57:47.791Z,9.14
2024-03-07T21:00:16.159Z,9.16
2024-03-07T21:02:48.232Z,9.11
2024-03-07T21:05:14.746Z,9.12
2024-03-07T21:07:47.995Z,9.15
2024-03-07T21:10:16.025Z,9.09
2024-03-07T21:12:45.888Z,9.10
2024-03-07T21:15:13.588Z,9.07
2024-03-07T21:17:41.803Z,8.96
2024-03-07T21:20:13.601Z,9.04
2024-03-07T21:22:41.561Z,9.00
2024-03-07T21:25:09.237Z,8.97
2024-03-07T21:27:38.894Z,8.95
2024-03-07T21:30:06.119Z,8.95
2024-03-07T21:32:33.655Z,8.98
2024-03-07T21:35:00.366Z,8.97
2024-03-07T21:37:26.922Z,8.97
2024-03-07T21:39:53.730Z,8.98
2024-03-07T21:42:20.213Z,8.92
2024-03-07T21:44:46.851Z,8.93
2024-03-07T21:47:14.555Z,8.93
2024-03-07T21:49:43.292Z,8.82
2024-03-07T21:52:18.273Z,8.86
2024-03-07T21:54:47.299Z,8.88
2024-03-07T21:57:14.573Z,8.88
2024-03-07T21:59:41.521Z,8.94
2024-03-07T22:02:10.218Z,8.90
2024-03-07T22:04:44.104Z,8.86
2024-03-07T22:07:19.625Z,8.81
2024-03-07T22:09:46.411Z,8.88
2024-03-07T22:12:12.977Z,8.90
2024-03-07T22:14:40.921Z,8.88
2024-03-07T22:17:07.865Z,8.92
2024-03-07T22:19:37.720Z,8.87
2024-03-07T22:22:05.167Z,8.74
2024-03-07T22:24:31.823Z,8.81
2024-03-07T22:26:58.507Z,8.72
2024-03-07T22:29:25.227Z,8.61
2024-03-07T22:31:52.237Z,8.66
2024-03-07T22:34:18.766Z,8.73
2024-03-07T22:36:45.565Z,8.74
2024-03-07T22:39:13.597Z,8.72
2024-03-07T22:41:43.604Z,8.71
2024-03-07T22:44:11.786Z,8.70
2024-03-07T22:46:38.846Z,8.68
2024-03-07T22:49:05.988Z,8.71
2024-03-07T22:51:32.826Z,8.67
2024-03-07T22:53:59.539Z,8.75
2024-03-07T22:56:26.359Z,8.69
2024-03-07T22:58:53.686Z,8.70
2024-03-07T23:01:29.776Z,8.73
2024-03-07T23:03:56.284Z,8.62
2024-03-07T23:06:22.814Z,8.69
2024-03-07T23:08:49.374Z,8.58
2024-03-07T23:11:17.223Z,8.67
2024-03-07T23:13:43.924Z,8.69
2024-03-07T23:16:10.403Z,8.68
2024-03-07T23:18:37.686Z,8.79
2024-03-07T23:21:04.358Z,8.79
2024-03-07T23:23:31.028Z,8.76
2024-03-07T23:25:57.496Z,8.82
2024-03-07T23:28:24.719Z,8.79
2024-03-07T23:30:51.997Z,8.78
2024-03-07T23:33:19.516Z,8.87
2024-03-07T23:35:46.258Z,8.85
2024-03-07T23:38:14.279Z,8.88
2024-03-07T23:40:40.737Z,8.90
2024-03-07T23:43:07.863Z,8.92
2024-03-07T23:45:34.370Z,8.87
2024-03-07T23:48:01.003Z,8.94
2024-03-07T23:50:27.937Z,8.91
2024-03-07T23:52:57.489Z,8.94
2024-03-07T23:55:24.705Z,8.95
2024-03-07T23:57:51.242Z,8.95
